Terminal Aerodrome Forecast
Issued by NWS

Home | Current Version | Previous Version | Text Only | Print | Product List | Glossary On
Versions: 1 2 3 4 5 6 7 8 9 10 11 12 13 14 15 16
000
FTUS43 KABR 300522
TAFPIR
TAF
KPIR 300522Z 3006/3106 14010KT P6SM OVC140
     FM300900 13006KT P6SM OVC080
     FM301200 12005KT P6SM OVC025
     FM301300 12005KT P6SM BKN015
     FM301600 12007KT P6SM BKN045
     FM301700 12007KT P6SM SCT070
     FM310100 10010KT P6SM BKN120=

USA.gov is the U.S. government's official web portal to all federal, state and local government web resources and services.